createdAt,value
2023-05-12T00:00:09.809Z,87.65
2023-05-12T00:00:20.871Z,87.65
2023-05-12T00:00:31.472Z,87.65
2023-05-12T00:00:42.451Z,87.65
2023-05-12T00:00:53.230Z,87.65
2023-05-12T00:01:04.274Z,87.65
2023-05-12T00:01:15.264Z,87.65
2023-05-12T00:01:26.029Z,87.65
2023-05-12T00:01:37.059Z,87.76
2023-05-12T00:01:48.020Z,87.76
2023-05-12T00:01:58.828Z,87.76
2023-05-12T00:02:09.884Z,87.76
2023-05-12T00:02:20.895Z,87.76
2023-05-12T00:02:31.773Z,87.85
2023-05-12T00:02:42.518Z,87.85
2023-05-12T00:02:53.063Z,87.85
2023-05-12T00:03:03.981Z,87.85
2023-05-12T00:03:14.725Z,87.85
2023-05-12T00:03:25.265Z,87.85
2023-05-12T00:03:36.258Z,87.85
2023-05-12T00:03:47.199Z,87.85
2023-05-12T00:03:58.006Z,87.85
2023-05-12T00:04:09.141Z,87.85
2023-05-12T00:04:19.743Z,87.85
2023-05-12T00:04:30.719Z,87.85
2023-05-12T00:04:41.482Z,87.85
2023-05-12T00:04:52.608Z,87.85
2023-05-12T00:05:03.598Z,87.85
2023-05-12T00:05:14.364Z,87.85
2023-05-12T00:05:25.397Z,87.85
2023-05-12T00:05:36.372Z,87.85
2023-05-12T00:05:47.137Z,87.96
2023-05-12T00:05:58.217Z,87.96
2023-05-12T00:06:09.145Z,87.96
2023-05-12T00:06:19.946Z,87.96
2023-05-12T00:06:30.980Z,87.96
2023-05-12T00:06:42.013Z,87.96
2023-05-12T00:06:52.735Z,87.96
2023-05-12T00:07:03.780Z,87.96
2023-05-12T00:07:14.760Z,87.96
2023-05-12T00:07:25.527Z,87.96
2023-05-12T00:07:36.578Z,87.96
2023-05-12T00:07:47.544Z,87.96
2023-05-12T00:07:58.309Z,87.96
2023-05-12T00:08:09.367Z,87.96
2023-05-12T00:08:20.347Z,87.96
2023-05-12T00:08:31.175Z,87.96
2023-05-12T00:08:42.177Z,87.96
2023-05-12T00:08:53.173Z,87.96
2023-05-12T00:09:03.935Z,87.96
2023-05-12T00:09:14.973Z,87.96
2023-05-12T00:09:25.932Z,87.96
2023-05-12T00:09:36.780Z,87.96
2023-05-12T00:09:47.764Z,87.96
2023-05-12T00:09:58.805Z,87.85
2023-05-12T00:10:09.524Z,87.85
2023-05-12T00:10:20.780Z,87.85
2023-05-12T00:10:31.337Z,87.85
2023-05-12T00:10:42.107Z,87.85
2023-05-12T00:10:53.158Z,87.76
2023-05-12T00:11:04.141Z,87.76
2023-05-12T00:11:14.893Z,87.76
2023-05-12T00:11:25.957Z,87.76
2023-05-12T00:11:36.931Z,87.76
2023-05-12T00:11:47.686Z,87.76
2023-05-12T00:11:58.745Z,87.65
2023-05-12T00:12:09.721Z,87.76
2023-05-12T00:12:20.542Z,87.76
2023-05-12T00:12:31.547Z,87.65
2023-05-12T00:12:42.526Z,87.76
2023-05-12T00:12:53.299Z,87.76
2023-05-12T00:13:04.353Z,87.76
2023-05-12T00:13:15.346Z,87.76
2023-05-12T00:13:26.098Z,87.76
2023-05-12T00:13:37.173Z,87.76
2023-05-12T00:13:48.163Z,87.76
2023-05-12T00:13:58.930Z,87.76
2023-05-12T00:14:09.924Z,87.76
2023-05-12T00:14:20.903Z,87.76
2023-05-12T00:14:31.681Z,87.76
2023-05-12T00:14:42.740Z,87.76
2023-05-12T00:14:53.724Z,87.76
2023-05-12T00:15:04.511Z,87.85
2023-05-12T00:15:15.532Z,87.76
2023-05-12T00:15:26.522Z,87.76
2023-05-12T00:15:37.269Z,87.85
2023-05-12T00:15:48.310Z,87.85
2023-05-12T00:15:59.499Z,87.85
2023-05-12T00:16:10.343Z,87.85
2023-05-12T00:16:20.863Z,87.85
2023-05-12T00:16:31.851Z,87.96
2023-05-12T00:16:42.647Z,87.96
2023-05-12T00:16:53.759Z,87.96
2023-05-12T00:17:04.229Z,87.96
2023-05-12T00:17:15.013Z,87.96
2023-05-12T00:17:26.072Z,87.96
2023-05-12T00:17:37.046Z,88.06
2023-05-12T00:17:47.907Z,88.06
2023-05-12T00:17:58.455Z,88.06
2023-05-12T00:18:09.447Z,88.06
2023-05-12T00:18:20.211Z,88.06
2023-05-12T00:18:31.306Z,88.06
2023-05-12T00:18:42.273Z,88.06
2023-05-12T00:18:53.116Z,88.17
2023-05-12T00:19:03.780Z,88.17
2023-05-12T00:19:14.222Z,88.17
2023-05-12T00:19:25.005Z,88.17
2023-05-12T00:19:36.066Z,88.17
2023-05-12T00:19:47.164Z,88.17
2023-05-12T00:19:57.752Z,88.17
2023-05-12T00:20:08.811Z,88.17
2023-05-12T00:20:20.064Z,88.26
2023-05-12T00:20:30.425Z,88.26
2023-05-12T00:20:41.502Z,88.26
2023-05-12T00:20:52.458Z,88.26
2023-05-12T00:21:03.260Z,88.26
2023-05-12T00:21:14.293Z,88.17
2023-05-12T00:21:25.261Z,88.17
2023-05-12T00:21:36.039Z,88.17
2023-05-12T00:21:47.080Z,88.06
2023-05-12T00:21:58.064Z,88.06
2023-05-12T00:22:08.817Z,88.06
2023-05-12T00:22:19.866Z,87.96
2023-05-12T00:22:30.842Z,87.96
2023-05-12T00:22:41.609Z,87.96
2023-05-12T00:22:52.656Z,87.85
2023-05-12T00:23:03.621Z,87.85
2023-05-12T00:23:14.399Z,87.85
2023-05-12T00:23:25.449Z,87.85
2023-05-12T00:23:36.450Z,87.76
2023-05-12T00:23:47.213Z,87.76
2023-05-12T00:23:58.263Z,87.76
2023-05-12T00:24:09.220Z,87.76
2023-05-12T00:24:19.994Z,87.76
2023-05-12T00:24:31.047Z,87.76
2023-05-12T00:24:42.018Z,87.76
2023-05-12T00:24:52.766Z,87.85
2023-05-12T00:25:03.810Z,87.85
2023-05-12T00:25:14.784Z,87.85
2023-05-12T00:25:25.561Z,87.85
2023-05-12T00:25:36.626Z,87.85
2023-05-12T00:25:47.575Z,87.85
2023-05-12T00:25:58.355Z,87.85
2023-05-12T00:26:09.410Z,87.85
2023-05-12T00:26:20.370Z,87.85
2023-05-12T00:26:31.175Z,87.85
2023-05-12T00:26:42.168Z,87.85
2023-05-12T00:26:53.162Z,87.96
2023-05-12T00:27:03.925Z,87.96
2023-05-12T00:27:14.972Z,87.96
2023-05-12T00:27:25.946Z,87.85
2023-05-12T00:27:36.697Z,87.96
2023-05-12T00:27:47.752Z,87.85
2023-05-12T00:27:58.709Z,87.85
2023-05-12T00:28:09.494Z,87.85
2023-05-12T00:28:20.520Z,87.85
2023-05-12T00:28:31.495Z,87.85
2023-05-12T00:28:42.281Z,87.85
2023-05-12T00:28:53.336Z,87.76
2023-05-12T00:29:04.365Z,87.76
2023-05-12T00:29:15.181Z,87.65
2023-05-12T00:29:26.176Z,87.55
2023-05-12T00:29:37.159Z,87.55
2023-05-12T00:29:48.030Z,87.55
2023-05-12T00:29:58.519Z,87.45
2023-05-12T00:30:09.481Z,87.45
2023-05-12T00:30:20.468Z,87.45
2023-05-12T00:30:31.070Z,87.45
2023-05-12T00:30:42.005Z,87.35
2023-05-12T00:30:52.778Z,87.35
2023-05-12T00:31:03.831Z,87.24
2023-05-12T00:31:14.839Z,87.24
2023-05-12T00:31:25.603Z,87.24
2023-05-12T00:31:36.630Z,87.24
2023-05-12T00:31:47.752Z,87.14
2023-05-12T00:31:58.542Z,87.14
2023-05-12T00:32:09.549Z,87.04
2023-05-12T00:32:20.629Z,87.04
2023-05-12T00:32:31.468Z,87.04
2023-05-12T00:32:41.980Z,87.04
2023-05-12T00:32:53.000Z,86.94
2023-05-12T00:33:03.859Z,86.94
2023-05-12T00:33:14.366Z,86.94
2023-05-12T00:33:25.326Z,86.94
2023-05-12T00:33:36.101Z,87.04
2023-05-12T00:33:47.145Z,87.04
2023-05-12T00:33:58.152Z,87.04
2023-05-12T00:34:08.881Z,87.04
2023-05-12T00:34:19.940Z,87.04
2023-05-12T00:34:30.889Z,87.04
2023-05-12T00:34:41.659Z,87.04
2023-05-12T00:34:52.751Z,87.04
2023-05-12T00:35:03.684Z,87.04
2023-05-12T00:35:14.459Z,87.04
2023-05-12T00:35:25.510Z,87.04
2023-05-12T00:35:36.488Z,87.04
2023-05-12T00:35:47.246Z,87.04
2023-05-12T00:35:58.287Z,87.04
2023-05-12T00:36:09.248Z,87.04
2023-05-12T00:36:20.034Z,87.04
2023-05-12T00:36:31.089Z,87.04
2023-05-12T00:36:42.049Z,87.04
2023-05-12T00:36:52.811Z,87.14
2023-05-12T00:37:03.869Z,87.14
2023-05-12T00:37:14.866Z,87.14
2023-05-12T00:37:25.600Z,87.14
2023-05-12T00:37:36.689Z,87.14
2023-05-12T00:37:47.632Z,87.24
2023-05-12T00:37:58.420Z,87.24
2023-05-12T00:38:09.465Z,87.24
2023-05-12T00:38:20.425Z,87.24
2023-05-12T00:38:31.184Z,87.35
2023-05-12T00:38:42.241Z,87.35
2023-05-12T00:38:53.213Z,87.35
2023-05-12T00:39:03.983Z,87.35
2023-05-12T00:39:15.044Z,87.35
2023-05-12T00:39:25.997Z,87.35
2023-05-12T00:39:36.760Z,87.45
2023-05-12T00:39:47.817Z,87.45
2023-05-12T00:39:58.806Z,87.45
2023-05-12T00:40:09.563Z,87.45
2023-05-12T00:40:20.879Z,87.45
2023-05-12T00:40:31.553Z,87.45
2023-05-12T00:40:42.321Z,87.45
2023-05-12T00:40:53.364Z,87.45
2023-05-12T00:41:04.331Z,87.59
2023-05-12T00:41:15.117Z,87.55
2023-05-12T00:41:26.159Z,87.55
2023-05-12T00:41:37.238Z,87.55
2023-05-12T00:41:47.954Z,87.55
2023-05-12T00:41:59.035Z,87.65
2023-05-12T00:42:09.989Z,87.65
2023-05-12T00:42:20.749Z,87.65
2023-05-12T00:42:31.794Z,87.65
2023-05-12T00:42:42.753Z,87.76
2023-05-12T00:42:53.546Z,87.76
2023-05-12T00:43:04.599Z,87.76
2023-05-12T00:43:15.405Z,87.85
2023-05-12T00:43:26.173Z,87.85
2023-05-12T00:43:37.217Z,87.85
2023-05-12T00:43:48.177Z,87.90
2023-05-12T00:43:58.957Z,87.85
2023-05-12T00:44:10.020Z,87.85
2023-05-12T00:44:20.986Z,88.00
2023-05-12T00:44:31.754Z,87.96
2023-05-12T00:44:42.791Z,87.96
2023-05-12T00:44:53.760Z,87.85
2023-05-12T00:45:04.536Z,87.96
2023-05-12T00:45:15.576Z,87.90
2023-05-12T00:45:26.539Z,87.85
2023-05-12T00:45:37.359Z,87.85
2023-05-12T00:45:48.375Z,87.85
2023-05-12T00:45:59.436Z,87.90
2023-05-12T00:46:10.235Z,87.85
2023-05-12T00:46:21.285Z,87.76
2023-05-12T00:46:32.421Z,87.76
2023-05-12T00:46:43.147Z,87.76
2023-05-12T00:46:54.195Z,87.76
2023-05-12T00:47:05.165Z,87.55
2023-05-12T00:47:15.945Z,87.55
2023-05-12T00:47:27.020Z,87.45
2023-05-12T00:47:37.978Z,87.35
2023-05-12T00:47:48.779Z,87.29
2023-05-12T00:47:59.810Z,87.14
2023-05-12T00:48:10.787Z,87.14
2023-05-12T00:48:21.528Z,87.04
2023-05-12T00:48:32.570Z,87.04
2023-05-12T00:48:43.542Z,86.94
2023-05-12T00:48:54.307Z,86.94
2023-05-12T00:49:05.348Z,86.98
2023-05-12T00:49:16.326Z,86.88
2023-05-12T00:49:27.111Z,86.88
2023-05-12T00:49:38.144Z,86.83
2023-05-12T00:49:49.111Z,86.88
2023-05-12T00:49:59.894Z,86.88
2023-05-12T00:50:10.960Z,86.77
2023-05-12T00:50:22.045Z,86.73
2023-05-12T00:50:32.978Z,86.67
2023-05-12T00:50:44.000Z,86.67
2023-05-12T00:50:54.982Z,86.57
2023-05-12T00:51:05.781Z,86.67
2023-05-12T00:51:16.800Z,86.57
2023-05-12T00:51:27.795Z,86.57
2023-05-12T00:51:38.568Z,86.57
2023-05-12T00:51:49.617Z,86.57
2023-05-12T00:52:00.592Z,86.57
2023-05-12T00:52:11.361Z,86.57
2023-05-12T00:52:22.400Z,86.57
2023-05-12T00:52:33.369Z,86.67
2023-05-12T00:52:44.147Z,86.67
2023-05-12T00:53:14.795Z,86.57
2023-05-12T00:53:17.324Z,86.67
2023-05-12T00:53:37.556Z,86.67
2023-05-12T00:53:48.308Z,86.67
2023-05-12T00:53:51.188Z,86.67
2023-05-12T00:54:01.236Z,86.67
2023-05-12T00:54:22.831Z,86.67
2023-05-12T00:54:33.887Z,86.67
2023-05-12T00:54:44.858Z,86.77
2023-05-12T00:54:55.625Z,86.77
2023-05-12T00:55:06.719Z,86.77
2023-05-12T00:55:17.653Z,86.88
2023-05-12T00:55:28.451Z,86.88
2023-05-12T00:55:39.493Z,86.88
2023-05-12T00:55:50.459Z,86.88
2023-05-12T00:56:01.218Z,86.88
2023-05-12T00:56:11.760Z,86.98
2023-05-12T00:56:22.769Z,86.88
2023-05-12T00:56:33.556Z,86.98
2023-05-12T00:56:44.615Z,86.98
2023-05-12T00:56:55.582Z,86.98
2023-05-12T00:57:06.365Z,86.98
2023-05-12T00:57:17.475Z,86.98
2023-05-12T00:57:28.453Z,86.98
2023-05-12T00:57:39.188Z,86.98
2023-05-12T00:57:50.250Z,86.98
2023-05-12T00:58:01.215Z,86.98
2023-05-12T00:58:11.981Z,86.98
2023-05-12T00:58:23.057Z,86.98
2023-05-12T00:58:34.015Z,86.98
2023-05-12T00:58:44.779Z,86.98
2023-05-12T00:58:55.843Z,86.98
2023-05-12T00:59:06.798Z,86.98
2023-05-12T00:59:17.569Z,86.88
2023-05-12T00:59:28.613Z,86.88
2023-05-12T00:59:39.584Z,86.88
2023-05-12T00:59:50.347Z,86.88
2023-05-12T01:00:01.394Z,86.88
2023-05-12T01:00:12.363Z,86.88
2023-05-12T01:00:23.130Z,86.88
2023-05-12T01:00:34.192Z,86.88
2023-05-12T01:00:45.149Z,86.88
2023-05-12T01:00:55.984Z,86.88
2023-05-12T01:01:06.508Z,86.88
2023-05-12T01:01:17.538Z,86.88
2023-05-12T01:01:28.361Z,86.88
2023-05-12T01:01:38.897Z,86.88
2023-05-12T01:01:49.871Z,86.88
2023-05-12T01:02:00.698Z,86.88
2023-05-12T01:02:11.264Z,86.88
2023-05-12T01:02:22.286Z,86.88
2023-05-12T01:02:33.156Z,86.88
2023-05-12T01:02:43.697Z,86.88
2023-05-12T01:02:54.726Z,86.77
2023-05-12T01:03:05.536Z,86.77
2023-05-12T01:03:16.148Z,86.88
2023-05-12T01:03:26.682Z,86.88
2023-05-12T01:03:37.439Z,86.88
2023-05-12T01:03:48.517Z,86.88
2023-05-12T01:03:59.468Z,86.88
2023-05-12T01:04:10.231Z,86.88
2023-05-12T01:04:21.288Z,86.88
2023-05-12T01:04:32.272Z,86.88
2023-05-12T01:04:43.075Z,86.88
2023-05-12T01:04:54.094Z,86.98
2023-05-12T01:05:05.081Z,86.98
2023-05-12T01:05:15.845Z,86.98
2023-05-12T01:05:26.890Z,86.98
2023-05-12T01:05:37.879Z,86.98
2023-05-12T01:05:48.662Z,86.98
2023-05-12T01:05:59.678Z,86.98
2023-05-12T01:06:10.660Z,87.08
2023-05-12T01:06:21.405Z,87.08
2023-05-12T01:06:32.540Z,87.08
2023-05-12T01:06:43.498Z,87.08
2023-05-12T01:06:54.265Z,87.08
2023-05-12T01:07:05.300Z,87.12
2023-05-12T01:07:16.293Z,87.23
2023-05-12T01:07:27.074Z,87.18
2023-05-12T01:07:38.147Z,87.18
2023-05-12T01:07:49.083Z,87.18
2023-05-12T01:07:59.881Z,87.29
2023-05-12T01:08:10.910Z,87.29
2023-05-12T01:08:21.893Z,87.29
2023-05-12T01:08:32.661Z,87.38
2023-05-12T01:08:43.713Z,87.43
2023-05-12T01:08:54.689Z,87.43
2023-05-12T01:09:05.445Z,87.38
2023-05-12T01:09:16.490Z,87.38
2023-05-12T01:09:27.456Z,87.38
2023-05-12T01:09:38.220Z,87.43
2023-05-12T01:09:49.284Z,87.43
2023-05-12T01:10:00.294Z,87.38
2023-05-12T01:10:11.030Z,87.38
2023-05-12T01:10:22.355Z,87.43
2023-05-12T01:10:32.964Z,87.43
2023-05-12T01:10:43.717Z,87.38
2023-05-12T01:10:54.787Z,87.43
2023-05-12T01:11:05.743Z,87.53
2023-05-12T01:11:16.567Z,87.53
2023-05-12T01:11:27.577Z,87.38
2023-05-12T01:11:38.541Z,87.38
2023-05-12T01:11:49.320Z,87.43
2023-05-12T01:12:00.371Z,87.43
2023-05-12T01:12:11.324Z,87.38
2023-05-12T01:12:22.110Z,87.43
2023-05-12T01:12:33.181Z,87.43
2023-05-12T01:12:44.174Z,87.43
2023-05-12T01:12:54.911Z,87.29
2023-05-12T01:13:05.946Z,87.32
2023-05-12T01:13:16.944Z,87.29
2023-05-12T01:13:27.723Z,87.29
2023-05-12T01:13:38.771Z,87.32
2023-05-12T01:13:49.740Z,87.32
2023-05-12T01:14:00.508Z,87.29
2023-05-12T01:14:11.559Z,87.32
2023-05-12T01:14:22.523Z,87.32
2023-05-12T01:14:33.299Z,87.32
2023-05-12T01:14:44.352Z,87.29
2023-05-12T01:14:55.299Z,87.32
2023-05-12T01:15:06.069Z,87.32
2023-05-12T01:15:17.144Z,87.32
2023-05-12T01:15:28.096Z,87.32
2023-05-12T01:15:38.864Z,87.23
2023-05-12T01:15:49.905Z,87.18
2023-05-12T01:16:00.885Z,87.23
2023-05-12T01:16:11.653Z,87.23
2023-05-12T01:16:22.735Z,87.23
2023-05-12T01:16:33.716Z,87.18
2023-05-12T01:16:44.495Z,87.18
2023-05-12T01:16:55.562Z,87.23
2023-05-12T01:17:06.511Z,87.23
2023-05-12T01:17:17.387Z,87.18
2023-05-12T01:17:28.013Z,87.23
2023-05-12T01:17:39.217Z,87.23
2023-05-12T01:17:49.710Z,87.23
2023-05-12T01:18:00.364Z,87.23
2023-05-12T01:18:11.328Z,87.32
2023-05-12T01:18:22.221Z,87.32
2023-05-12T01:18:32.799Z,87.32
2023-05-12T01:18:43.412Z,87.32
2023-05-12T01:18:54.261Z,87.32
2023-05-12T01:19:05.318Z,87.32
2023-05-12T01:19:16.409Z,87.32
2023-05-12T01:19:27.189Z,87.32
2023-05-12T01:19:38.258Z,87.32
2023-05-12T01:19:49.300Z,87.32
2023-05-12T01:20:00.096Z,87.29
2023-05-12T01:20:10.588Z,87.32
2023-05-12T01:20:21.757Z,87.32
2023-05-12T01:20:32.653Z,87.29
2023-05-12T01:20:43.710Z,87.32
2023-05-12T01:20:54.658Z,87.32
2023-05-12T01:21:05.426Z,87.32
2023-05-12T01:21:16.513Z,87.32
2023-05-12T01:21:27.478Z,87.32
2023-05-12T01:21:38.259Z,87.32
2023-05-12T01:21:49.283Z,87.32
2023-05-12T01:22:00.276Z,87.32
2023-05-12T01:22:11.066Z,87.43
2023-05-12T01:22:22.101Z,87.43
2023-05-12T01:22:33.087Z,87.43
2023-05-12T01:22:43.844Z,87.43
2023-05-12T01:22:54.906Z,87.53
2023-05-12T01:23:05.905Z,87.53
2023-05-12T01:23:16.651Z,87.53
2023-05-12T01:23:27.856Z,87.53
2023-05-12T01:23:38.761Z,87.63
2023-05-12T01:23:49.525Z,87.63
2023-05-12T01:24:00.605Z,87.63
2023-05-12T01:24:11.560Z,87.63
2023-05-12T01:24:22.310Z,87.59
2023-05-12T01:24:33.385Z,87.59
2023-05-12T01:24:44.325Z,87.63
2023-05-12T01:24:55.118Z,87.73
2023-05-12T01:25:06.136Z,87.73
2023-05-12T01:25:17.121Z,87.73
2023-05-12T01:25:27.880Z,87.73
2023-05-12T01:25:38.916Z,87.73
2023-05-12T01:25:49.875Z,87.84
2023-05-12T01:26:00.666Z,87.79
2023-05-12T01:26:11.703Z,87.79
2023-05-12T01:26:22.684Z,87.84
2023-05-12T01:26:33.445Z,87.84
2023-05-12T01:26:44.498Z,87.84
2023-05-12T01:26:55.482Z,87.84
2023-05-12T01:27:06.289Z,87.84
2023-05-12T01:27:16.785Z,87.84
2023-05-12T01:27:27.747Z,87.79
2023-05-12T01:27:38.541Z,87.84
2023-05-12T01:27:49.603Z,87.84
2023-05-12T01:28:00.568Z,87.94
2023-05-12T01:28:11.326Z,87.90
2023-05-12T01:28:22.364Z,87.94
2023-05-12T01:28:33.354Z,87.94
2023-05-12T01:28:44.127Z,87.90
2023-05-12T01:28:55.177Z,87.94
2023-05-12T01:29:06.133Z,87.90
2023-05-12T01:29:16.906Z,87.90
2023-05-12T01:29:27.955Z,87.90
2023-05-12T01:29:38.936Z,87.90
2023-05-12T01:29:49.685Z,87.90
2023-05-12T01:30:00.755Z,87.90
2023-05-12T01:30:11.738Z,87.90
2023-05-12T01:30:22.731Z,87.90
2023-05-12T01:30:33.481Z,87.90
2023-05-12T01:30:44.506Z,87.90
2023-05-12T01:30:55.314Z,87.90
2023-05-12T01:31:06.386Z,87.90
2023-05-12T01:31:18.942Z,87.79
2023-05-12T01:31:28.153Z,87.79
2023-05-12T01:31:39.233Z,87.79
2023-05-12T01:31:50.218Z,87.79
2023-05-12T01:32:00.978Z,87.79
2023-05-12T01:32:12.058Z,87.79
2023-05-12T01:32:23.082Z,87.79
2023-05-12T01:32:33.830Z,87.70
2023-05-12T01:32:44.883Z,87.70
2023-05-12T01:32:55.910Z,87.70
2023-05-12T01:33:06.683Z,87.70
2023-05-12T01:33:17.692Z,87.59
2023-05-12T01:33:28.666Z,87.59
2023-05-12T01:33:39.439Z,87.59
2023-05-12T01:33:50.476Z,87.59
2023-05-12T01:34:01.479Z,87.59
2023-05-12T01:34:12.225Z,87.59
2023-05-12T01:34:23.301Z,87.59
2023-05-12T01:34:34.255Z,87.59
2023-05-12T01:34:45.029Z,87.59
2023-05-12T01:34:56.100Z,87.59
2023-05-12T01:35:07.047Z,87.59
2023-05-12T01:35:17.801Z,87.59
2023-05-12T01:35:28.842Z,87.59
2023-05-12T01:35:39.843Z,87.59
2023-05-12T01:35:50.588Z,87.59
2023-05-12T01:36:02.170Z,87.59
2023-05-12T01:36:12.579Z,87.59
2023-05-12T01:36:23.348Z,87.59
2023-05-12T01:36:34.389Z,87.49
2023-05-12T01:36:45.365Z,87.49
2023-05-12T01:36:56.130Z,87.59
2023-05-12T01:37:07.175Z,87.59
2023-05-12T01:37:18.146Z,87.59
2023-05-12T01:37:28.925Z,87.59
2023-05-12T01:37:39.977Z,87.59
2023-05-12T01:37:50.940Z,87.59
2023-05-12T01:38:01.723Z,87.59
2023-05-12T01:38:12.763Z,87.49
2023-05-12T01:38:23.726Z,87.49
2023-05-12T01:38:34.527Z,87.49
2023-05-12T01:38:45.554Z,87.49
2023-05-12T01:38:56.518Z,87.59
2023-05-12T01:39:07.285Z,87.49
2023-05-12T01:39:18.333Z,87.59
2023-05-12T01:39:29.305Z,87.59
2023-05-12T01:39:40.070Z,87.59
2023-05-12T01:39:51.118Z,87.59
2023-05-12T01:40:02.097Z,87.59
2023-05-12T01:40:12.845Z,87.59
2023-05-12T01:40:23.968Z,87.59
2023-05-12T01:40:34.878Z,87.59
2023-05-12T01:40:45.650Z,87.59
2023-05-12T01:40:56.694Z,87.59
2023-05-12T01:41:07.721Z,87.59
2023-05-12T01:41:18.444Z,87.59
2023-05-12T01:41:29.507Z,87.59
2023-05-12T01:41:40.470Z,87.59
2023-05-12T01:41:51.246Z,87.49
2023-05-12T01:42:02.295Z,87.49
2023-05-12T01:42:13.260Z,87.49
2023-05-12T01:42:24.044Z,87.49
2023-05-12T01:42:35.109Z,87.49
2023-05-12T01:42:46.064Z,87.49
2023-05-12T01:42:57.103Z,87.49
2023-05-12T01:43:07.558Z,87.49
2023-05-12T01:43:19.816Z,87.49
2023-05-12T01:43:29.264Z,87.59
2023-05-12T01:43:40.308Z,87.49
2023-05-12T01:43:51.274Z,87.49
2023-05-12T01:44:02.052Z,87.49
2023-05-12T01:44:13.094Z,87.49
2023-05-12T01:44:24.061Z,87.59
2023-05-12T01:44:34.855Z,87.49
2023-05-12T01:44:45.879Z,87.59
2023-05-12T01:44:56.850Z,87.59
2023-05-12T01:45:07.670Z,87.49
2023-05-12T01:45:18.693Z,87.59
2023-05-12T01:45:29.634Z,87.59
2023-05-12T01:45:40.394Z,87.49
2023-05-12T01:45:51.470Z,87.49
2023-05-12T01:46:02.440Z,87.49
2023-05-12T01:46:13.225Z,87.59
2023-05-12T01:46:24.288Z,87.49
2023-05-12T01:46:35.292Z,87.49
2023-05-12T01:46:46.153Z,87.49
2023-05-12T01:46:56.699Z,87.49
2023-05-12T01:47:07.622Z,87.49
2023-05-12T01:47:18.368Z,87.49
2023-05-12T01:47:29.455Z,87.49
2023-05-12T01:47:40.439Z,87.49
2023-05-12T01:47:51.345Z,87.49
2023-05-12T01:48:01.889Z,87.49
2023-05-12T01:48:12.897Z,87.49
2023-05-12T01:48:23.612Z,87.49
2023-05-12T01:48:34.659Z,87.49
2023-05-12T01:48:45.638Z,87.49
2023-05-12T01:48:56.421Z,87.49
2023-05-12T01:49:07.463Z,87.49
2023-05-12T01:49:18.433Z,87.49
2023-05-12T01:49:29.206Z,87.49
2023-05-12T01:49:40.242Z,87.49
2023-05-12T01:49:51.201Z,87.49
2023-05-12T01:50:01.979Z,87.49
2023-05-12T01:50:13.013Z,87.49
2023-05-12T01:50:24.002Z,87.49
2023-05-12T01:50:34.746Z,87.49
2023-05-12T01:50:45.817Z,87.38
2023-05-12T01:50:56.767Z,87.38
2023-05-12T01:51:07.562Z,87.49
2023-05-12T01:51:18.653Z,87.38
2023-05-12T01:51:29.619Z,87.38
2023-05-12T01:51:40.349Z,87.38
2023-05-12T01:51:51.387Z,87.38
2023-05-12T01:52:02.349Z,87.38
2023-05-12T01:52:13.122Z,87.38
2023-05-12T01:52:24.164Z,87.38
2023-05-12T01:52:35.174Z,87.38
2023-05-12T01:52:46.000Z,87.38
2023-05-12T01:52:56.469Z,87.38
2023-05-12T01:53:07.437Z,87.38
2023-05-12T01:53:18.212Z,87.38
2023-05-12T01:53:29.280Z,87.38
2023-05-12T01:53:40.243Z,87.29
2023-05-12T01:53:51.022Z,87.29
2023-05-12T01:54:02.060Z,87.29
2023-05-12T01:54:13.022Z,87.29
2023-05-12T01:54:23.781Z,87.29
2023-05-12T01:54:34.835Z,87.29
2023-05-12T01:54:45.801Z,87.29
2023-05-12T01:54:56.566Z,87.29
2023-05-12T01:55:07.629Z,87.29
2023-05-12T01:55:18.580Z,87.29
2023-05-12T01:55:29.375Z,87.29
2023-05-12T01:55:40.419Z,87.29
2023-05-12T01:55:51.378Z,87.29
2023-05-12T01:56:02.134Z,87.38
2023-05-12T01:56:13.189Z,87.29
2023-05-12T01:56:24.170Z,87.29
2023-05-12T01:56:34.932Z,87.29
2023-05-12T01:56:45.991Z,87.29
2023-05-12T01:56:56.986Z,87.29
2023-05-12T01:57:07.739Z,87.29
2023-05-12T01:57:18.783Z,87.29
2023-05-12T01:57:29.754Z,87.29
2023-05-12T01:57:40.532Z,87.29
2023-05-12T01:57:51.601Z,87.29
2023-05-12T01:58:02.557Z,87.29
2023-05-12T01:58:13.329Z,87.29
2023-05-12T01:58:24.386Z,87.29
2023-05-12T01:58:35.387Z,87.29
2023-05-12T01:58:46.159Z,87.29
2023-05-12T01:58:57.227Z,87.24
2023-05-12T01:59:08.190Z,87.29
2023-05-12T01:59:19.031Z,87.29
2023-05-12T01:59:30.082Z,87.29
2023-05-12T01:59:41.037Z,87.29
2023-05-12T01:59:51.803Z,87.29
2023-05-12T02:00:02.852Z,87.29
2023-05-12T02:00:13.813Z,87.29
2023-05-12T02:00:24.597Z,87.29
2023-05-12T02:00:35.639Z,87.29
2023-05-12T02:00:46.630Z,87.29
2023-05-12T02:00:57.370Z,87.18
2023-05-12T02:01:08.436Z,87.14
2023-05-12T02:01:19.415Z,87.18
2023-05-12T02:01:30.213Z,87.18
2023-05-12T02:01:41.304Z,87.08
2023-05-12T02:01:52.281Z,87.04
2023-05-12T02:02:03.122Z,87.08
2023-05-12T02:02:13.703Z,86.98
2023-05-12T02:02:24.703Z,86.98
2023-05-12T02:02:35.580Z,86.98
2023-05-12T02:02:46.130Z,86.88
2023-05-12T02:02:57.150Z,86.88
2023-05-12T02:03:08.028Z,86.83
2023-05-12T02:03:18.643Z,86.77
2023-05-12T02:03:29.667Z,86.77
2023-05-12T02:03:40.646Z,86.77
2023-05-12T02:03:51.210Z,86.77
2023-05-12T02:04:02.269Z,86.77
2023-05-12T02:04:13.184Z,86.77
2023-05-12T02:04:23.769Z,86.88
2023-05-12T02:04:34.740Z,86.88
2023-05-12T02:04:45.501Z,86.98
2023-05-12T02:04:56.532Z,86.98
2023-05-12T02:05:07.535Z,86.98
2023-05-12T02:05:18.265Z,87.08
2023-05-12T02:05:29.321Z,87.08
2023-05-12T02:05:40.289Z,87.18
2023-05-12T02:05:51.050Z,87.18
2023-05-12T02:06:02.107Z,87.18
2023-05-12T02:06:13.079Z,87.18
2023-05-12T02:06:23.850Z,87.18
2023-05-12T02:06:34.917Z,87.18
2023-05-12T02:06:45.886Z,87.18
2023-05-12T02:06:56.664Z,87.29
2023-05-12T02:07:07.722Z,87.29
2023-05-12T02:07:18.673Z,87.29
2023-05-12T02:07:29.453Z,87.38
2023-05-12T02:07:40.491Z,87.38
2023-05-12T02:07:51.482Z,87.38
2023-05-12T02:08:02.249Z,87.38
2023-05-12T02:08:13.288Z,87.38
2023-05-12T02:08:24.257Z,87.38
2023-05-12T02:08:35.040Z,87.38
2023-05-12T02:08:46.098Z,87.38
2023-05-12T02:08:57.072Z,87.38
2023-05-12T02:09:07.803Z,87.49
2023-05-12T02:09:18.852Z,87.38
2023-05-12T02:09:29.831Z,87.38
2023-05-12T02:09:40.587Z,87.49
2023-05-12T02:09:51.633Z,87.38
2023-05-12T02:10:02.659Z,87.49
2023-05-12T02:10:13.400Z,87.38
2023-05-12T02:10:24.460Z,87.38
2023-05-12T02:10:35.427Z,87.38
2023-05-12T02:10:46.185Z,87.38
2023-05-12T02:10:57.231Z,87.38
2023-05-12T02:11:08.207Z,87.38
2023-05-12T02:11:18.972Z,87.38
2023-05-12T02:11:30.019Z,87.38
2023-05-12T02:11:40.977Z,87.38
2023-05-12T02:11:51.759Z,87.38
2023-05-12T02:12:02.852Z,87.38
2023-05-12T02:12:13.799Z,87.38
2023-05-12T02:12:24.562Z,87.38
2023-05-12T02:12:35.607Z,87.38
2023-05-12T02:12:46.576Z,87.38
2023-05-12T02:12:57.342Z,87.38
2023-05-12T02:13:08.436Z,87.38
2023-05-12T02:13:19.393Z,87.38
2023-05-12T02:13:30.160Z,87.38
2023-05-12T02:13:41.202Z,87.38
2023-05-12T02:13:52.177Z,87.38
2023-05-12T02:14:02.949Z,87.38
2023-05-12T02:14:13.999Z,87.38
2023-05-12T02:14:24.964Z,87.38
2023-05-12T02:14:35.770Z,87.38
2023-05-12T02:14:46.784Z,87.38
2023-05-12T02:14:57.762Z,87.38
2023-05-12T02:15:08.513Z,87.38
2023-05-12T02:15:19.570Z,87.49
2023-05-12T02:15:30.571Z,87.49
2023-05-12T02:15:41.395Z,87.49
2023-05-12T02:15:51.911Z,87.49
2023-05-12T02:16:02.954Z,87.49
2023-05-12T02:16:13.722Z,87.49
2023-05-12T02:16:24.876Z,87.49
2023-05-12T02:16:35.445Z,87.49
2023-05-12T02:16:46.235Z,87.49
2023-05-12T02:16:57.252Z,87.49
2023-05-12T02:17:08.278Z,87.49
2023-05-12T02:17:19.053Z,87.49
2023-05-12T02:17:30.082Z,87.49
2023-05-12T02:17:41.094Z,87.49
2023-05-12T02:17:51.940Z,87.49
2023-05-12T02:18:03.034Z,87.49
2023-05-12T02:18:13.990Z,87.49
2023-05-12T02:18:24.779Z,87.49
2023-05-12T02:18:35.854Z,87.38
2023-05-12T02:18:46.858Z,87.49
2023-05-12T02:18:57.696Z,87.49
2023-05-12T02:19:08.777Z,87.49
2023-05-12T02:19:19.227Z,87.49
2023-05-12T02:19:29.988Z,87.49
2023-05-12T02:19:41.048Z,87.49
2023-05-12T02:19:52.004Z,87.49
2023-05-12T02:20:02.814Z,87.49
2023-05-12T02:20:13.857Z,87.49
2023-05-12T02:20:24.805Z,87.49
2023-05-12T02:20:35.583Z,87.49
2023-05-12T02:20:46.666Z,87.49
2023-05-12T02:20:57.612Z,87.59